Time;durP1;ratioP1;P1;durP2;ratioP2;P2;SDS_P1;SDS_P2;PMS_P1;PMS_P2;Temp;Humidity;BMP_temperature;BMP_pressure;BME280_temperature;BME280_humidity;BME280_pressure;Samples;Min_cycle;Max_cycle;Signal;HPM_P1;HPM_P2
2022/07/03 00:00:05;;;;;;;4.45;1.38;;;19.40;99.90;;;;;;4992256;28;20026;-87
2022/07/03 00:02:30;;;;;;;;;;;19.40;99.90;;;;;;4992989;28;20027;-86
2022/07/03 00:05:11;;;;;;;2.88;1.50;;;19.40;99.90;;;;;;4974984;28;19910;-85
2022/07/03 00:07:38;;;;;;;7.50;2.53;;;19.40;99.90;;;;;;4993138;28;20069;-85
2022/07/03 00:10:14;;;;;;;2.92;1.38;;;19.30;99.90;;;;;;4991770;28;20026;-85
2022/07/03 00:12:39;;;;;;;7.70;1.95;;;19.30;99.90;;;;;;4993296;28;20073;-85
2022/07/03 00:15:07;;;;;;;8.32;1.58;;;19.30;99.90;;;;;;4992124;28;20482;-86
2022/07/03 00:17:33;;;;;;;3.72;1.63;;;19.30;99.90;;;;;;4993298;28;20029;-85
2022/07/03 00:20:05;;;;;;;5.38;1.45;;;19.30;99.90;;;;;;4992463;28;20113;-85
2022/07/03 00:22:36;;;;;;;3.25;1.30;;;19.30;99.90;;;;;;4974955;28;20023;-84
2022/07/03 00:25:06;;;;;;;4.32;1.30;;;19.30;99.90;;;;;;4971460;28;20026;-85
2022/07/03 00:27:34;;;;;;;3.30;1.27;;;19.30;99.90;;;;;;4983953;28;20097;-86
2022/07/03 00:30:03;;;;;;;7.25;1.35;;;19.30;99.90;;;;;;4975769;28;20054;-85
2022/07/03 00:32:29;;;;;;;12.38;1.30;;;19.30;99.90;;;;;;4982662;28;20050;-85
2022/07/03 00:34:56;;;;;;;2.30;1.30;;;19.30;99.90;;;;;;4988664;28;20050;-85
2022/07/03 00:37:35;;;;;;;1.90;1.00;;;19.30;99.90;;;;;;4992432;28;20022;-85
2022/07/03 00:40:01;;;;;;;3.35;1.05;;;19.30;99.90;;;;;;4992451;28;20073;-86
2022/07/03 00:42:28;;;;;;;5.30;1.70;;;19.30;99.90;;;;;;4992306;28;20029;-86
2022/07/03 00:44:56;;;;;;;5.45;1.25;;;19.30;99.90;;;;;;4992663;28;20022;-85
2022/07/03 00:47:35;;;;;;;2.05;1.33;;;19.30;99.90;;;;;;4992088;28;20375;-85
2022/07/03 00:50:08;;;;;;;5.72;1.20;;;19.30;99.90;;;;;;4961361;28;20031;-87
2022/07/03 00:52:36;;;;;;;4.15;1.55;;;19.30;99.90;;;;;;4992508;28;20030;-85
2022/07/03 00:55:08;;;;;;;4.30;1.30;;;19.30;99.90;;;;;;4991279;28;20034;-86
2022/07/03 00:57:39;;;;;;;3.83;1.20;;;19.30;99.90;;;;;;4992388;28;20479;-85
2022/07/03 01:00:05;;;;;;;2.65;1.77;;;19.30;99.90;;;;;;4992532;28;20030;-86
2022/07/03 01:03:06;;;;;;;2.55;1.35;;;19.20;99.90;;;;;;4977842;28;20057;-85
2022/07/03 01:05:34;;;;;;;4.57;1.90;;;19.30;99.90;;;;;;4973450;28;20081;-86
2022/07/03 01:08:20;;;;;;;5.18;1.67;;;19.20;99.90;;;;;;4976474;28;20057;-86
2022/07/03 01:10:56;;;;;;;2.92;1.33;;;19.20;99.90;;;;;;4980313;28;20023;-86
2022/07/03 01:13:53;;;;;;;5.32;1.30;;;19.20;99.90;;;;;;4994121;28;20042;-86
2022/07/03 01:16:27;;;;;;;1.83;1.15;;;19.20;99.90;;;;;;4996265;28;20018;-85
2022/07/03 01:19:34;;;;;;;3.28;1.60;;;19.20;99.90;;;;;;4962291;28;20077;-85
2022/07/03 01:22:28;;;;;;;2.67;1.33;;;19.20;99.90;;;;;;4995307;28;20378;-85
2022/07/03 01:25:33;;;;;;;3.53;1.40;;;19.20;99.90;;;;;;4977722;28;20026;-86
2022/07/03 01:28:10;;;;;;;4.45;1.20;;;19.10;99.90;;;;;;4993085;28;20478;-85
2022/07/03 01:30:48;;;;;;;3.13;1.30;;;19.10;99.90;;;;;;4989396;28;20049;-85
2022/07/03 01:33:25;;;;;;;4.40;1.30;;;19.10;99.90;;;;;;4964036;28;20057;-86
2022/07/03 01:36:25;;;;;;;5.07;1.10;;;19.10;99.90;;;;;;4993243;28;20046;-84
2022/07/03 01:38:51;;;;;;;3.65;1.40;;;19.00;99.90;;;;;;4977398;28;20442;-85
2022/07/03 01:41:47;;;;;;;6.32;1.17;;;19.00;99.90;;;;;;4980191;28;20054;-85
2022/07/03 01:44:14;;;;;;;3.08;1.23;;;19.00;99.90;;;;;;4985324;28;20037;-85
2022/07/03 01:46:42;;;;;;;3.67;1.60;;;19.00;99.90;;;;;;4995547;28;20104;-85
2022/07/03 01:49:12;;;;;;;3.08;1.50;;;19.00;99.90;;;;;;4995159;28;20029;-85
2022/07/03 01:51:39;;;;;;;2.50;1.17;;;19.00;99.90;;;;;;4994623;28;20042;-86
2022/07/03 01:54:24;;;;;;;5.82;1.58;;;19.00;99.90;;;;;;4987283;28;20081;-86
2022/07/03 01:56:49;;;;;;;4.22;1.30;;;19.00;99.90;;;;;;4988815;28;20026;-85
2022/07/03 01:59:15;;;;;;;7.72;2.00;;;18.90;99.90;;;;;;4964905;28;20129;-85
2022/07/03 02:02:18;;;;;;;2.30;1.58;;;18.90;99.90;;;;;;4991678;28;20026;-87
2022/07/03 02:05:00;;;;;;;3.88;1.42;;;18.80;99.90;;;;;;4994608;28;20033;-88
2022/07/03 02:08:12;;;;;;;2.67;1.50;;;18.90;99.90;;;;;;4994898;28;20023;-85
2022/07/03 02:10:46;;;;;;;5.13;1.75;;;18.80;99.90;;;;;;4989584;28;20051;-86
2022/07/03 02:13:37;;;;;;;3.97;2.05;;;18.80;99.90;;;;;;4994236;28;20390;-86
2022/07/03 02:16:03;;;;;;;1.98;1.58;;;18.80;99.90;;;;;;4991987;28;20424;-88
2022/07/03 02:18:33;;;;;;;5.38;1.42;;;18.80;99.90;;;;;;4994507;28;20065;-88
2022/07/03 02:21:16;;;;;;;3.80;1.67;;;18.80;99.90;;;;;;4992700;28;20026;-87
2022/07/03 02:24:09;;;;;;;2.65;1.40;;;18.80;99.90;;;;;;4976239;28;20030;-86
2022/07/03 02:26:40;;;;;;;2.28;1.52;;;18.80;99.90;;;;;;4990911;28;20482;-87
2022/07/03 02:29:13;;;;;;;4.13;1.55;;;18.70;99.90;;;;;;4994472;28;20035;-87
2022/07/03 02:31:45;;;;;;;8.85;1.73;;;18.80;99.90;;;;;;4993101;28;20018;-87
2022/07/03 02:34:21;;;;;;;2.78;1.00;;;18.80;99.90;;;;;;4993920;28;20061;-88
2022/07/03 02:36:48;;;;;;;2.72;1.55;;;18.70;99.90;;;;;;4974205;28;20050;-87
2022/07/03 02:40:06;;;;;;;9.32;1.73;;;18.80;99.90;;;;;;4993919;28;20026;-88
2022/07/03 02:42:48;;;;;;;2.15;1.38;;;18.70;99.90;;;;;;4970976;28;20391;-89
2022/07/03 02:45:14;;;;;;;1.70;1.50;;;18.70;99.90;;;;;;4975815;28;20042;-87
2022/07/03 02:48:01;;;;;;;1.88;1.38;;;18.70;99.90;;;;;;4993823;28;20026;-88
2022/07/03 02:50:28;;;;;;;3.40;1.45;;;18.80;99.90;;;;;;4993622;28;20034;-88
2022/07/03 02:53:04;;;;;;;3.78;1.50;;;18.70;99.90;;;;;;4993790;28;20029;-88
2022/07/03 02:55:44;;;;;;;3.90;2.03;;;18.70;99.90;;;;;;4993376;28;20030;-89
2022/07/03 02:58:49;;;;;;;1.50;1.33;;;18.70;99.90;;;;;;4973029;28;20364;-87
2022/07/03 03:01:47;;;;;;;3.55;1.73;;;18.70;99.90;;;;;;4986338;28;20030;-87
2022/07/03 03:04:45;;;;;;;2.97;1.55;;;18.70;99.90;;;;;;4988697;28;20023;-91
2022/07/03 03:07:16;;;;;;;1.70;1.50;;;18.70;99.90;;;;;;4982937;28;20030;-91
2022/07/03 03:09:44;;;;;;;3.92;1.25;;;18.70;99.90;;;;;;4993417;28;20058;-89
2022/07/03 03:12:11;;;;;;;3.30;1.30;;;18.70;99.90;;;;;;4992392;28;20097;-90
2022/07/03 03:14:47;;;;;;;2.88;1.23;;;18.70;99.90;;;;;;4989681;28;20019;-91
2022/07/03 03:17:49;;;;;;;1.63;1.30;;;18.70;99.90;;;;;;4993359;28;20411;-91
2022/07/03 03:20:18;;;;;;;4.82;1.50;;;18.80;99.90;;;;;;4976335;28;20497;-89
2022/07/03 03:23:21;;;;;;;4.22;1.48;;;18.80;99.90;;;;;;4993023;28;20029;-89
2022/07/03 03:25:47;;;;;;;2.28;1.23;;;18.80;99.90;;;;;;4992414;28;20360;-90
2022/07/03 03:28:14;;;;;;;2.45;1.40;;;18.80;99.90;;;;;;4988665;28;20034;-89
2022/07/03 03:30:40;;;;;;;6.28;1.35;;;18.80;99.90;;;;;;4989808;28;20026;-90
2022/07/03 03:33:10;;;;;;;2.88;1.48;;;18.80;99.90;;;;;;4971396;28;20142;-89
